createdAt,value
2022-11-21T00:00:53.219Z,72.10
2022-11-21T00:03:20.289Z,72.00
2022-11-21T00:05:49.257Z,72.30
2022-11-21T00:08:18.834Z,71.90
2022-11-21T00:10:46.171Z,72.60
2022-11-21T00:13:15.205Z,72.30
2022-11-21T00:15:42.097Z,72.40
2022-11-21T00:18:08.959Z,72.20
2022-11-21T00:20:37.478Z,72.30
2022-11-21T00:23:04.804Z,72.50
2022-11-21T00:25:31.945Z,72.60
2022-11-21T00:30:43.017Z,72.80
2022-11-21T00:33:09.867Z,73.10
2022-11-21T00:35:36.772Z,72.90
2022-11-21T00:38:03.577Z,73.20
2022-11-21T00:40:30.445Z,73.20
2022-11-21T00:42:57.289Z,73.60
2022-11-21T00:45:24.764Z,73.60
2022-11-21T00:47:51.706Z,73.40
2022-11-21T00:50:18.709Z,73.60
2022-11-21T00:52:45.515Z,73.30
2022-11-21T00:55:12.311Z,73.20
2022-11-21T00:57:39.196Z,73.10
2022-11-21T01:00:06.704Z,73.00
2022-11-21T01:02:33.681Z,72.90
2022-11-21T01:05:00.494Z,72.90
2022-11-21T01:07:27.455Z,72.90
2022-11-21T01:09:54.262Z,72.60
2022-11-21T01:12:21.033Z,72.40
2022-11-21T01:14:48.109Z,72.70
2022-11-21T01:17:14.905Z,72.90
2022-11-21T01:19:41.680Z,72.50
2022-11-21T01:22:09.051Z,72.20
2022-11-21T01:24:36.005Z,72.30
2022-11-21T01:27:02.817Z,72.70
2022-11-21T01:29:29.727Z,72.50
2022-11-21T01:31:56.528Z,72.10
2022-11-21T01:34:23.444Z,72.50
2022-11-21T01:36:50.205Z,72.60
2022-11-21T01:39:17.042Z,72.50
2022-11-21T01:41:45.548Z,72.00
2022-11-21T01:44:18.233Z,72.40
2022-11-21T01:46:45.249Z,71.80
2022-11-21T01:49:29.545Z,71.90
2022-11-21T01:52:08.711Z,71.90
2022-11-21T01:54:47.821Z,72.00
2022-11-21T01:57:22.149Z,72.40
2022-11-21T02:00:13.337Z,72.90
2022-11-21T02:02:44.029Z,72.70
2022-11-21T02:05:16.437Z,72.90
2022-11-21T02:07:46.224Z,72.70
2022-11-21T02:10:14.926Z,72.60
2022-11-21T02:12:44.168Z,72.40
2022-11-21T02:15:11.702Z,72.50
2022-11-21T02:17:38.809Z,72.60
2022-11-21T02:20:08.457Z,72.60
2022-11-21T02:23:12.457Z,72.30
2022-11-21T02:25:42.297Z,72.10
2022-11-21T02:28:16.033Z,72.00
2022-11-21T02:30:43.669Z,72.20
2022-11-21T02:33:11.943Z,72.10
2022-11-21T02:35:38.960Z,72.30
2022-11-21T02:38:23.871Z,72.30
2022-11-21T02:41:26.593Z,72.30
2022-11-21T02:43:59.451Z,72.10
2022-11-21T02:46:29.466Z,72.40
2022-11-21T02:48:57.310Z,72.10
2022-11-21T02:51:24.109Z,72.50
2022-11-21T02:53:50.921Z,72.20
2022-11-21T02:56:17.862Z,72.30
2022-11-21T02:58:45.149Z,72.40
2022-11-21T03:01:11.916Z,72.60
2022-11-21T03:03:38.846Z,72.20
2022-11-21T03:06:05.766Z,72.20
2022-11-21T03:08:32.569Z,72.50
2022-11-21T03:10:59.419Z,71.80
2022-11-21T03:13:26.175Z,71.90
2022-11-21T03:15:55.427Z,71.90
2022-11-21T03:18:22.285Z,72.00
2022-11-21T03:20:49.041Z,72.20
2022-11-21T03:23:15.730Z,72.00
2022-11-21T03:25:42.518Z,71.90
2022-11-21T03:28:09.268Z,72.20
2022-11-21T03:30:36.138Z,72.50
2022-11-21T03:33:03.051Z,72.40
2022-11-21T03:35:29.866Z,72.70
2022-11-21T03:37:56.772Z,72.80
2022-11-21T03:40:23.605Z,72.90
2022-11-21T03:42:50.649Z,73.10
2022-11-21T03:45:17.559Z,73.10
2022-11-21T03:47:44.387Z,73.10
2022-11-21T03:50:11.158Z,73.30
2022-11-21T03:52:37.962Z,73.10
2022-11-21T03:55:05.098Z,73.30
2022-11-21T03:57:31.926Z,73.40
2022-11-21T03:59:58.744Z,73.50
2022-11-21T04:02:25.589Z,73.20
2022-11-21T04:04:52.394Z,73.50
2022-11-21T04:07:19.168Z,73.70
2022-11-21T04:09:45.976Z,73.90
2022-11-21T04:12:12.850Z,73.40
2022-11-21T04:14:39.645Z,73.60
2022-11-21T04:17:06.447Z,73.90
2022-11-21T04:19:33.194Z,74.00
2022-11-21T04:21:59.929Z,74.30
2022-11-21T04:24:27.058Z,74.30
2022-11-21T04:26:57.045Z,73.60
2022-11-21T04:29:23.880Z,73.50
2022-11-21T04:31:50.662Z,73.20
2022-11-21T04:34:17.460Z,73.30
2022-11-21T04:36:44.286Z,73.20
2022-11-21T04:39:11.174Z,73.60
2022-11-21T04:41:37.989Z,73.50
2022-11-21T04:44:05.097Z,73.70
2022-11-21T04:46:32.035Z,73.60
2022-11-21T04:48:58.809Z,73.70
2022-11-21T04:51:25.636Z,73.50
2022-11-21T04:53:52.390Z,73.80
2022-11-21T04:56:19.140Z,73.60
2022-11-21T04:58:46.157Z,73.70
2022-11-21T05:01:13.079Z,73.20
2022-11-21T05:03:40.010Z,72.90
2022-11-21T05:06:07.168Z,72.80
2022-11-21T05:08:33.959Z,73.20
2022-11-21T05:11:19.449Z,73.30
2022-11-21T05:13:46.333Z,73.20
2022-11-21T05:16:13.152Z,73.00
2022-11-21T05:18:40.078Z,73.40
2022-11-21T05:21:06.848Z,73.20
2022-11-21T05:23:33.772Z,72.80
2022-11-21T05:26:00.543Z,73.20
2022-11-21T05:28:27.865Z,72.80
2022-11-21T05:30:54.849Z,73.30
2022-11-21T05:33:21.794Z,73.50
2022-11-21T05:35:48.654Z,73.20
2022-11-21T05:38:15.429Z,73.20
2022-11-21T05:40:42.303Z,73.20
2022-11-21T05:43:30.306Z,73.50
2022-11-21T05:45:57.177Z,73.20
2022-11-21T05:48:23.962Z,73.50
2022-11-21T05:50:50.868Z,73.20
2022-11-21T05:53:18.038Z,73.40
2022-11-21T05:55:45.327Z,73.40
2022-11-21T05:58:12.626Z,73.10
2022-11-21T06:00:39.775Z,73.20
2022-11-21T06:03:25.620Z,73.40
2022-11-21T06:05:52.932Z,73.50
2022-11-21T06:08:19.857Z,73.50
2022-11-21T06:10:46.724Z,73.30
2022-11-21T06:13:22.694Z,73.30
2022-11-21T06:15:54.764Z,73.70
2022-11-21T06:18:21.777Z,73.30
2022-11-21T06:20:48.802Z,73.70
2022-11-21T06:23:15.725Z,73.20
2022-11-21T06:25:43.463Z,73.40
2022-11-21T06:28:11.613Z,73.60
2022-11-21T06:30:38.718Z,73.10
2022-11-21T06:33:06.896Z,73.70
2022-11-21T06:35:37.089Z,73.80
2022-11-21T06:38:04.255Z,74.10
2022-11-21T06:40:33.733Z,74.10
2022-11-21T06:43:00.966Z,73.90
2022-11-21T06:45:27.942Z,74.20
2022-11-21T06:47:54.897Z,74.00
2022-11-21T06:50:22.661Z,74.40
2022-11-21T06:52:49.796Z,74.30
2022-11-21T06:55:16.727Z,74.70
2022-11-21T06:57:43.558Z,74.70
2022-11-21T07:00:11.163Z,74.80
2022-11-21T07:02:38.037Z,74.50
2022-11-21T07:05:05.014Z,74.60
2022-11-21T07:07:31.920Z,74.70
2022-11-21T07:09:58.777Z,74.30
2022-11-21T07:12:44.229Z,74.40
2022-11-21T07:15:11.776Z,74.60
2022-11-21T07:17:38.669Z,74.20
2022-11-21T07:20:06.098Z,74.40
2022-11-21T07:22:32.909Z,74.30
2022-11-21T07:24:59.701Z,74.40
2022-11-21T07:27:26.505Z,74.70
2022-11-21T07:29:53.339Z,74.80
2022-11-21T07:32:20.147Z,74.80
2022-11-21T07:34:46.949Z,74.80
2022-11-21T07:37:13.758Z,74.80
2022-11-21T07:39:40.558Z,74.60
2022-11-21T07:42:07.391Z,74.50
2022-11-21T07:44:34.203Z,74.50
2022-11-21T07:47:00.965Z,74.60
2022-11-21T07:49:28.056Z,74.30
2022-11-21T07:51:55.067Z,74.50
2022-11-21T07:54:21.867Z,74.50
2022-11-21T07:56:48.644Z,74.30
2022-11-21T07:59:15.391Z,74.30
2022-11-21T08:01:45.406Z,74.30
2022-11-21T08:04:12.561Z,74.00
2022-11-21T08:06:39.429Z,74.20
2022-11-21T08:09:06.194Z,73.60
2022-11-21T08:11:32.945Z,74.00
2022-11-21T08:13:59.839Z,74.50
2022-11-21T08:16:28.195Z,74.60
2022-11-21T08:18:55.209Z,74.60
2022-11-21T08:21:22.018Z,74.10
2022-11-21T08:23:49.254Z,74.30
2022-11-21T08:26:16.901Z,74.00
2022-11-21T08:28:43.714Z,74.10
2022-11-21T08:31:10.708Z,73.60
2022-11-21T08:33:37.517Z,73.40
2022-11-21T08:36:07.842Z,73.60
2022-11-21T08:38:34.891Z,73.80
2022-11-21T08:41:20.115Z,73.90
2022-11-21T08:43:46.917Z,73.70
2022-11-21T08:46:13.782Z,74.10
2022-11-21T08:48:40.605Z,74.10
2022-11-21T08:51:07.410Z,73.40
2022-11-21T08:53:34.301Z,73.80
2022-11-21T08:56:04.145Z,73.40
2022-11-21T08:58:31.340Z,72.90
2022-11-21T09:00:59.740Z,72.50
2022-11-21T09:03:30.810Z,72.90
2022-11-21T09:05:59.574Z,72.20
2022-11-21T09:08:26.570Z,72.60
2022-11-21T09:10:53.440Z,72.70
2022-11-21T09:13:20.269Z,72.30
2022-11-21T09:16:05.892Z,72.10
2022-11-21T09:18:32.616Z,71.70
2022-11-21T09:20:59.528Z,71.70
2022-11-21T09:23:26.381Z,71.40
2022-11-21T09:25:53.230Z,70.90
2022-11-21T09:28:20.093Z,70.90
2022-11-21T09:30:46.891Z,71.20
2022-11-21T09:33:16.983Z,70.90
2022-11-21T09:35:44.136Z,71.00
2022-11-21T09:38:11.186Z,71.00
2022-11-21T09:40:44.375Z,71.00
2022-11-21T09:43:26.200Z,70.80
2022-11-21T09:46:06.818Z,70.70
2022-11-21T09:48:45.013Z,71.00
2022-11-21T09:51:14.931Z,70.70
2022-11-21T09:54:07.425Z,70.40
2022-11-21T09:56:38.993Z,70.30
2022-11-21T09:59:25.305Z,70.40
2022-11-21T10:01:52.242Z,70.40
2022-11-21T10:04:19.113Z,70.50
2022-11-21T10:07:03.126Z,70.00
2022-11-21T10:10:01.194Z,68.70
2022-11-21T10:12:51.276Z,69.00
2022-11-21T10:15:33.203Z,68.50
2022-11-21T10:18:31.013Z,67.30
2022-11-21T10:21:24.701Z,67.70
2022-11-21T10:24:21.346Z,67.80
2022-11-21T10:26:53.733Z,67.70
2022-11-21T10:29:39.004Z,67.10
2022-11-21T10:32:26.032Z,66.50
2022-11-21T10:34:59.223Z,67.00
2022-11-21T10:37:38.848Z,67.00
2022-11-21T10:40:34.041Z,67.20
2022-11-21T10:43:26.341Z,66.90
2022-11-21T10:45:53.820Z,67.00
2022-11-21T10:48:20.748Z,66.70
2022-11-21T10:51:09.510Z,66.80
2022-11-21T10:53:54.997Z,66.70
2022-11-21T10:56:23.017Z,65.90
2022-11-21T10:58:55.546Z,66.00
2022-11-21T11:01:34.495Z,65.90
2022-11-21T11:04:34.853Z,66.10
2022-11-21T11:07:26.642Z,65.90
2022-11-21T11:10:14.861Z,66.10
2022-11-21T11:13:02.041Z,65.60
2022-11-21T11:15:32.042Z,64.50
2022-11-21T11:18:07.625Z,64.80
2022-11-21T11:20:39.857Z,64.80
2022-11-21T11:23:19.910Z,65.30
2022-11-21T11:25:49.471Z,65.00
2022-11-21T11:28:19.257Z,65.30
2022-11-21T11:30:47.798Z,65.10
2022-11-21T11:33:29.076Z,65.80
2022-11-21T11:36:08.381Z,65.60
2022-11-21T11:38:35.454Z,65.90
2022-11-21T11:41:12.846Z,66.00
2022-11-21T11:44:41.750Z,65.30
2022-11-21T11:47:30.947Z,65.80
2022-11-21T11:50:13.910Z,65.40
2022-11-21T11:52:43.493Z,65.00
2022-11-21T11:55:40.036Z,65.00
2022-11-21T11:58:18.446Z,65.50
2022-11-21T12:00:47.747Z,64.80
2022-11-21T12:03:26.840Z,64.40
2022-11-21T12:06:15.103Z,64.20
2022-11-21T12:08:48.994Z,63.60
2022-11-21T12:11:41.665Z,63.50
2022-11-21T12:14:54.450Z,63.40
2022-11-21T12:17:32.307Z,63.50
2022-11-21T12:20:01.804Z,63.90
2022-11-21T12:22:28.686Z,63.20
2022-11-21T12:24:55.462Z,63.70
2022-11-21T12:27:31.897Z,63.70
2022-11-21T12:30:29.869Z,63.50
2022-11-21T12:33:07.899Z,63.50
2022-11-21T12:35:54.065Z,63.50
2022-11-21T12:38:33.068Z,63.50
2022-11-21T12:41:22.877Z,63.70
2022-11-21T12:43:59.343Z,64.50
2022-11-21T12:46:35.814Z,64.60
2022-11-21T12:49:54.264Z,64.30
2022-11-21T12:52:55.542Z,64.50
2022-11-21T12:55:37.017Z,64.60
2022-11-21T12:58:09.412Z,64.70
2022-11-21T13:01:03.752Z,64.80
2022-11-21T13:03:39.313Z,64.80
2022-11-21T13:06:13.096Z,64.30
2022-11-21T13:08:41.078Z,64.60
2022-11-21T13:11:59.760Z,64.90
2022-11-21T13:14:40.725Z,65.40
2022-11-21T13:17:25.240Z,65.50
2022-11-21T13:20:13.898Z,65.40
2022-11-21T13:22:40.665Z,65.60
2022-11-21T13:25:12.588Z,66.20
2022-11-21T13:27:41.702Z,66.00
2022-11-21T13:30:15.345Z,65.90
2022-11-21T13:32:43.581Z,66.40
2022-11-21T13:35:19.429Z,66.80
2022-11-21T13:38:02.916Z,67.20
2022-11-21T13:40:32.563Z,66.90
2022-11-21T13:43:32.566Z,67.50
2022-11-21T13:46:00.505Z,67.50
2022-11-21T13:48:59.385Z,67.40
2022-11-21T13:51:51.673Z,67.70
2022-11-21T13:54:35.680Z,68.10
2022-11-21T13:57:31.789Z,68.00
2022-11-21T14:00:28.477Z,68.00
2022-11-21T14:03:04.223Z,68.30
2022-11-21T14:05:38.707Z,68.50
2022-11-21T14:08:27.330Z,68.70
2022-11-21T14:10:56.219Z,68.30
2022-11-21T14:13:26.115Z,69.20
2022-11-21T14:16:19.269Z,69.10
2022-11-21T14:18:47.376Z,69.20
2022-11-21T14:21:32.948Z,69.50
2022-11-21T14:24:05.448Z,69.60
2022-11-21T14:26:40.140Z,70.20
2022-11-21T14:29:40.017Z,70.80
2022-11-21T14:32:14.460Z,70.50
2022-11-21T14:34:41.393Z,71.10
2022-11-21T14:37:08.425Z,71.30
2022-11-21T14:39:44.735Z,71.60
2022-11-21T14:42:15.267Z,71.40
2022-11-21T14:44:43.287Z,72.10
2022-11-21T14:47:25.232Z,73.10
2022-11-21T14:49:54.794Z,72.70
2022-11-21T14:52:29.060Z,73.70
2022-11-21T14:57:52.980Z,74.60
2022-11-21T15:00:58.058Z,76.10
2022-11-21T15:03:22.061Z,76.90
2022-11-21T15:06:07.920Z,77.10
2022-11-21T15:09:28.656Z,77.80
2022-11-21T15:11:36.971Z,78.20
2022-11-21T15:14:29.534Z,78.40
2022-11-21T15:16:58.398Z,78.60
2022-11-21T15:19:28.919Z,78.80
2022-11-21T15:21:58.172Z,79.30
2022-11-21T15:24:32.877Z,79.40
2022-11-21T15:27:00.957Z,79.40
2022-11-21T15:29:32.547Z,80.00
2022-11-21T15:32:16.833Z,80.10
2022-11-21T15:34:44.277Z,80.00
2022-11-21T15:37:18.598Z,80.50
2022-11-21T15:39:48.302Z,80.40
2022-11-21T15:42:48.261Z,80.80
2022-11-21T15:45:19.894Z,80.50
2022-11-21T15:47:48.274Z,81.20
2022-11-21T15:50:15.809Z,81.50
2022-11-21T15:52:48.232Z,81.70
2022-11-21T15:55:26.607Z,81.60
2022-11-21T15:57:53.642Z,81.90
2022-11-21T16:00:20.553Z,82.10
2022-11-21T16:02:47.600Z,82.10
2022-11-21T16:05:16.029Z,82.30
2022-11-21T16:07:43.047Z,82.30
2022-11-21T16:10:17.200Z,82.70
2022-11-21T16:12:49.486Z,82.50
2022-11-21T16:15:16.706Z,82.60
2022-11-21T16:17:45.583Z,82.70
2022-11-21T16:20:12.998Z,82.60
2022-11-21T16:22:45.705Z,82.90
2022-11-21T16:25:14.230Z,83.00
2022-11-21T16:27:41.075Z,83.20
2022-11-21T16:30:08.564Z,83.30
2022-11-21T16:32:35.411Z,83.30
2022-11-21T16:35:02.246Z,83.50
2022-11-21T16:37:31.675Z,83.50
2022-11-21T16:39:58.430Z,83.70
2022-11-21T16:42:25.359Z,84.00
2022-11-21T16:44:52.164Z,84.00
2022-11-21T16:47:18.982Z,83.70
2022-11-21T16:49:48.671Z,83.80
2022-11-21T16:52:15.841Z,83.60
2022-11-21T16:54:42.611Z,83.70
2022-11-21T16:57:09.550Z,83.60
2022-11-21T16:59:36.404Z,83.20
2022-11-21T17:02:03.843Z,83.20
2022-11-21T17:04:30.872Z,82.90
2022-11-21T17:06:57.952Z,82.70
2022-11-21T17:09:24.757Z,83.20
2022-11-21T17:11:51.561Z,82.90
2022-11-21T17:14:18.295Z,83.10
2022-11-21T17:16:45.802Z,83.10
2022-11-21T17:19:12.755Z,83.00
2022-11-21T17:21:39.528Z,83.30
2022-11-21T17:24:06.599Z,83.10
2022-11-21T17:26:37.877Z,82.90
2022-11-21T17:29:05.147Z,83.00
2022-11-21T17:31:32.505Z,83.20
2022-11-21T17:34:01.149Z,83.30
2022-11-21T17:36:29.759Z,83.30
2022-11-21T17:38:56.937Z,83.60
2022-11-21T17:41:24.657Z,83.60
2022-11-21T17:43:55.304Z,83.80
2022-11-21T17:46:22.362Z,83.90
2022-11-21T17:48:54.991Z,83.80
2022-11-21T17:51:27.311Z,83.60
2022-11-21T17:53:54.375Z,84.10
2022-11-21T17:56:23.146Z,83.90
2022-11-21T17:58:51.360Z,84.10
2022-11-21T18:01:19.741Z,84.20
2022-11-21T18:03:48.214Z,84.00
2022-11-21T18:06:17.161Z,84.10
2022-11-21T18:08:46.012Z,84.30
2022-11-21T18:11:15.621Z,84.30
2022-11-21T18:13:42.679Z,84.20
2022-11-21T18:16:15.314Z,84.30
2022-11-21T18:18:42.708Z,84.40
2022-11-21T18:21:11.641Z,84.60
2022-11-21T18:23:40.195Z,84.70
2022-11-21T18:26:17.053Z,84.80
2022-11-21T18:28:44.152Z,84.30
2022-11-21T18:43:56.530Z,84.40
2022-11-21T18:46:24.428Z,82.10
2022-11-21T18:49:02.728Z,82.40
2022-11-21T18:51:32.120Z,82.50
2022-11-21T18:54:07.179Z,83.30
2022-11-21T18:56:35.666Z,83.40
2022-11-21T18:59:03.965Z,83.50
2022-11-21T19:01:31.987Z,83.50
2022-11-21T19:03:59.209Z,84.10
2022-11-21T19:06:27.634Z,83.90
2022-11-21T19:08:56.266Z,84.10
2022-11-21T19:11:26.027Z,84.30
2022-11-21T19:13:54.772Z,84.40
2022-11-21T19:16:24.988Z,84.70
2022-11-21T19:21:42.064Z,84.70
2022-11-21T19:24:13.825Z,84.80
2022-11-21T19:26:41.556Z,84.70
2022-11-21T19:29:08.655Z,85.00
2022-11-21T19:31:40.705Z,85.10
2022-11-21T19:34:11.629Z,84.80
2022-11-21T19:36:39.561Z,85.00
2022-11-21T19:39:06.601Z,85.10
2022-11-21T19:41:33.674Z,84.90
2022-11-21T19:44:02.109Z,85.20
2022-11-21T19:46:33.077Z,85.20
2022-11-21T19:49:00.517Z,85.10
2022-11-21T19:51:36.488Z,85.00
2022-11-21T19:54:05.462Z,85.00
2022-11-21T19:56:33.388Z,85.10
2022-11-21T19:59:00.277Z,85.20
2022-11-21T20:01:29.631Z,85.10
2022-11-21T20:04:00.624Z,85.20
2022-11-21T20:06:30.841Z,85.10
2022-11-21T20:09:01.494Z,85.20
2022-11-21T20:11:30.099Z,85.40
2022-11-21T20:13:57.484Z,85.40
2022-11-21T20:16:29.865Z,85.30
2022-11-21T20:19:00.182Z,85.40
2022-11-21T20:21:27.182Z,85.30
2022-11-21T20:23:54.585Z,85.40
2022-11-21T20:26:22.891Z,85.30
2022-11-21T20:28:53.261Z,85.30
2022-11-21T20:31:31.741Z,85.30
2022-11-21T20:34:01.086Z,85.30
2022-11-21T20:36:30.054Z,85.30
2022-11-21T20:39:05.581Z,85.30
2022-11-21T20:41:37.463Z,85.50
2022-11-21T20:46:54.057Z,85.80
2022-11-21T20:49:21.088Z,85.40
2022-11-21T20:53:20.558Z,85.60
2022-11-21T20:54:35.280Z,85.60
2022-11-21T20:57:02.196Z,85.70
2022-11-21T20:59:29.379Z,85.60
2022-11-21T21:01:56.691Z,85.40
2022-11-21T21:04:23.631Z,85.50
2022-11-21T21:06:50.783Z,85.50
2022-11-21T21:09:17.672Z,86.50
2022-11-21T21:11:51.941Z,85.40
2022-11-21T21:14:20.035Z,86.30
2022-11-21T21:16:46.883Z,86.70
2022-11-21T21:19:16.473Z,86.60
2022-11-21T21:21:43.694Z,86.50
2022-11-21T21:24:13.045Z,86.60
2022-11-21T21:26:46.461Z,86.80
2022-11-21T21:29:17.217Z,86.60
2022-11-21T21:31:51.723Z,86.90
2022-11-21T21:34:21.325Z,86.70
2022-11-21T21:36:48.993Z,86.90
2022-11-21T21:39:16.320Z,86.60
2022-11-21T21:41:48.990Z,86.40
2022-11-21T21:44:19.710Z,86.60
2022-11-21T21:46:46.650Z,86.40
2022-11-21T21:49:13.657Z,85.10
2022-11-21T21:51:40.738Z,85.30
2022-11-21T21:54:15.017Z,85.10
2022-11-21T21:56:41.880Z,85.40
2022-11-21T21:59:08.706Z,85.20
2022-11-21T22:01:35.543Z,85.30
2022-11-21T22:04:04.751Z,85.30
2022-11-21T22:06:34.406Z,85.20
2022-11-21T22:09:02.144Z,84.80
2022-11-21T22:11:31.842Z,85.10
2022-11-21T22:14:01.188Z,85.10
2022-11-21T22:16:28.705Z,85.10
2022-11-21T22:18:55.850Z,85.00
2022-11-21T22:21:28.513Z,85.00
2022-11-21T22:26:46.910Z,85.10
2022-11-21T22:29:13.771Z,85.00
2022-11-21T22:31:40.667Z,84.90
2022-11-21T22:34:09.633Z,85.00
2022-11-21T22:36:36.448Z,85.10
2022-11-21T22:39:03.272Z,85.00
2022-11-21T22:41:30.482Z,84.90
2022-11-21T22:43:59.391Z,85.00
2022-11-21T22:46:28.418Z,84.90
2022-11-21T22:48:55.262Z,84.70
2022-11-21T22:51:24.943Z,84.70
2022-11-21T22:53:52.798Z,84.90
2022-11-21T22:56:22.720Z,84.90
2022-11-21T22:58:49.862Z,84.80
2022-11-21T23:01:18.462Z,84.80
2022-11-21T23:03:45.766Z,84.70
2022-11-21T23:06:15.258Z,84.80
2022-11-21T23:08:42.837Z,84.80
2022-11-21T23:11:22.852Z,84.80
2022-11-21T23:13:50.555Z,84.80
2022-11-21T23:16:17.924Z,84.80
2022-11-21T23:18:45.386Z,84.80
2022-11-21T23:21:13.922Z,85.00
2022-11-21T23:23:41.267Z,85.00
2022-11-21T23:26:08.382Z,84.90
2022-11-21T23:28:35.251Z,85.00
2022-11-21T23:31:02.258Z,84.90
2022-11-21T23:33:29.163Z,84.90
2022-11-21T23:35:55.976Z,85.10
2022-11-21T23:38:23.108Z,85.00
2022-11-21T23:40:50.254Z,85.10
2022-11-21T23:43:18.224Z,85.10
2022-11-21T23:45:49.773Z,85.00
2022-11-21T23:48:16.723Z,85.30
2022-11-21T23:50:43.855Z,85.20
2022-11-21T23:53:10.675Z,85.20
2022-11-21T23:55:37.530Z,85.50
2022-11-21T23:58:04.712Z,85.40
